Time;durP1;ratioP1;P1;durP2;ratioP2;P2;SDS_P1;SDS_P2;PMS_P1;PMS_P2;Temp;Humidity;BMP_temperature;BMP_pressure;BME280_temperature;BME280_humidity;BME280_pressure;Samples;Min_cycle;Max_cycle;Signal;HPM_P1;HPM_P2
2021/04/24 00:02:07;;;;;;;16.55;8.43;;;2.80;99.90;;;;;;5030706;28;20033;-73
2021/04/24 00:04:33;;;;;;;16.98;9.30;;;2.70;99.90;;;;;;5030720;28;20029;-73
2021/04/24 00:06:58;;;;;;;18.02;8.82;;;2.70;99.90;;;;;;5029507;28;20022;-73
2021/04/24 00:09:24;;;;;;;14.70;7.88;;;2.70;99.90;;;;;;5030776;28;20021;-72
2021/04/24 00:11:50;;;;;;;21.15;8.98;;;2.70;99.90;;;;;;5030887;28;20365;-72
2021/04/24 00:14:15;;;;;;;17.23;8.48;;;2.70;99.90;;;;;;5030691;28;20021;-73
2021/04/24 00:16:41;;;;;;;14.63;7.47;;;2.70;99.90;;;;;;5029556;28;20029;-73
2021/04/24 00:19:06;;;;;;;15.68;8.18;;;2.70;99.90;;;;;;5030734;28;20031;-73
2021/04/24 00:21:32;;;;;;;17.50;8.00;;;2.70;99.90;;;;;;5029319;28;20119;-73
2021/04/24 00:23:58;;;;;;;16.45;8.35;;;2.60;99.90;;;;;;5030316;28;20034;-73
2021/04/24 00:26:25;;;;;;;15.00;7.60;;;2.60;99.90;;;;;;5030383;28;20029;-73
2021/04/24 00:28:51;;;;;;;11.95;7.18;;;2.60;99.90;;;;;;5030434;28;20034;-73
2021/04/24 00:31:16;;;;;;;14.55;8.27;;;2.60;99.90;;;;;;5030279;28;20367;-73
2021/04/24 00:33:42;;;;;;;15.38;8.00;;;2.50;99.90;;;;;;5030160;28;20053;-73
2021/04/24 00:36:07;;;;;;;14.30;8.05;;;2.50;99.90;;;;;;5030224;28;20033;-73
2021/04/24 00:38:33;;;;;;;16.58;8.27;;;2.50;99.90;;;;;;5030034;28;20107;-73
2021/04/24 00:40:59;;;;;;;13.95;7.70;;;2.50;99.90;;;;;;5030130;28;20081;-73
2021/04/24 00:43:24;;;;;;;14.38;8.00;;;2.40;99.90;;;;;;5028644;28;20041;-73
2021/04/24 00:45:50;;;;;;;13.27;8.02;;;2.40;99.90;;;;;;5030054;28;20018;-73
2021/04/24 00:48:16;;;;;;;15.07;8.00;;;2.40;99.90;;;;;;5030014;28;20034;-73
2021/04/24 00:50:42;;;;;;;19.17;8.10;;;2.30;99.90;;;;;;5028701;28;20108;-73
2021/04/24 00:53:28;;;;;;;16.15;8.88;;;2.30;99.90;;;;;;5029953;28;20108;-73
2021/04/24 00:55:54;;;;;;;18.65;8.18;;;2.40;99.90;;;;;;5028223;28;20057;-73
2021/04/24 00:58:19;;;;;;;15.63;8.43;;;2.40;99.90;;;;;;5029238;28;21645;-73
2021/04/24 01:00:45;;;;;;;14.07;7.63;;;2.30;99.90;;;;;;5028709;28;20026;-73
2021/04/24 01:03:10;;;;;;;15.90;7.88;;;2.30;99.90;;;;;;5029993;28;20080;-72
2021/04/24 01:05:39;;;;;;;14.52;7.97;;;2.20;99.90;;;;;;5029751;28;20387;-73
2021/04/24 01:08:08;;;;;;;16.98;8.52;;;2.20;99.90;;;;;;5029565;28;20526;-73
2021/04/24 01:10:35;;;;;;;14.38;8.50;;;2.20;99.90;;;;;;5029493;28;20018;-73
2021/04/24 01:13:01;;;;;;;17.02;8.10;;;2.10;99.90;;;;;;5028250;28;20018;-73
2021/04/24 01:15:27;;;;;;;16.20;8.63;;;2.10;99.90;;;;;;5029565;28;20041;-73
2021/04/24 01:17:53;;;;;;;13.65;8.10;;;2.00;99.90;;;;;;5029808;28;20537;-73
2021/04/24 01:20:19;;;;;;;14.45;7.57;;;1.90;99.90;;;;;;5029522;28;20056;-73
2021/04/24 01:22:46;;;;;;;15.25;8.18;;;1.90;99.90;;;;;;5028213;28;20030;-73
2021/04/24 01:25:17;;;;;;;13.77;7.00;;;1.80;99.90;;;;;;5029399;28;20028;-73
2021/04/24 01:27:49;;;;;;;14.55;6.93;;;1.80;99.90;;;;;;5029790;28;20071;-73
2021/04/24 01:30:16;;;;;;;14.10;7.70;;;1.70;99.90;;;;;;5028014;28;20494;-73
2021/04/24 01:32:41;;;;;;;13.05;7.85;;;1.70;99.90;;;;;;5029701;28;20021;-73
2021/04/24 01:35:16;;;;;;;18.27;7.93;;;1.70;99.90;;;;;;5028010;28;20022;-73
2021/04/24 01:37:42;;;;;;;24.63;9.27;;;1.60;99.90;;;;;;5028195;28;20030;-73
2021/04/24 01:40:11;;;;;;;13.13;7.18;;;1.60;99.90;;;;;;5028034;28;20108;-73
2021/04/24 01:42:36;;;;;;;14.23;7.78;;;1.50;99.90;;;;;;5028017;28;20053;-73
2021/04/24 01:45:07;;;;;;;16.20;7.93;;;1.50;99.90;;;;;;5029201;28;20061;-73
2021/04/24 01:47:33;;;;;;;14.63;7.38;;;1.50;99.90;;;;;;5028254;28;20072;-73
2021/04/24 01:49:59;;;;;;;13.82;7.20;;;1.50;99.90;;;;;;5029181;28;20033;-73
2021/04/24 01:52:34;;;;;;;14.90;9.43;;;1.40;99.90;;;;;;5027945;28;20021;-73
2021/04/24 01:55:00;;;;;;;14.13;7.70;;;1.40;99.90;;;;;;5029155;28;20067;-73
2021/04/24 01:57:25;;;;;;;14.07;8.00;;;1.40;99.90;;;;;;5029143;28;20026;-73
2021/04/24 01:59:51;;;;;;;14.98;8.05;;;1.30;99.90;;;;;;5029309;28;20064;-73
2021/04/24 02:02:16;;;;;;;12.30;7.35;;;1.30;99.90;;;;;;5027790;28;20390;-73
2021/04/24 02:04:42;;;;;;;15.27;8.00;;;1.30;99.90;;;;;;5029113;28;20402;-73
2021/04/24 02:07:10;;;;;;;13.68;7.38;;;1.30;99.90;;;;;;5029080;28;20494;-73
2021/04/24 02:09:36;;;;;;;15.32;7.75;;;1.30;99.90;;;;;;5031298;28;20018;-72
2021/04/24 02:12:13;;;;;;;14.55;7.20;;;1.20;99.90;;;;;;5031738;28;20033;-73
2021/04/24 02:14:45;;;;;;;11.80;7.25;;;1.20;99.90;;;;;;5032962;28;20041;-73
2021/04/24 02:17:16;;;;;;;17.38;7.97;;;1.20;99.90;;;;;;5033150;28;20056;-73
2021/04/24 02:19:44;;;;;;;15.43;7.87;;;1.10;99.90;;;;;;5032781;28;20036;-73
2021/04/24 02:22:11;;;;;;;12.20;6.93;;;1.10;99.90;;;;;;5032780;28;20022;-73
2021/04/24 02:24:45;;;;;;;13.95;6.93;;;1.00;99.90;;;;;;5031310;28;20499;-73
2021/04/24 02:27:11;;;;;;;12.40;7.70;;;1.00;99.90;;;;;;5032652;28;20025;-73
2021/04/24 02:29:39;;;;;;;17.75;8.23;;;1.00;99.90;;;;;;5032372;28;20116;-73
2021/04/24 02:32:06;;;;;;;15.68;7.90;;;0.90;99.90;;;;;;5032632;28;20021;-73
2021/04/24 02:34:32;;;;;;;15.68;8.23;;;0.90;99.90;;;;;;5032538;28;20394;-73
2021/04/24 02:36:58;;;;;;;14.90;7.63;;;0.90;99.90;;;;;;5032594;28;20034;-73
2021/04/24 02:39:37;;;;;;;15.43;7.60;;;0.90;99.90;;;;;;5032406;28;20022;-73
2021/04/24 02:42:05;;;;;;;11.25;7.15;;;0.90;99.90;;;;;;5031243;28;20036;-73
2021/04/24 02:44:30;;;;;;;13.65;7.63;;;0.80;99.90;;;;;;5031081;28;20083;-73
2021/04/24 02:46:57;;;;;;;15.07;7.05;;;0.80;99.90;;;;;;5032425;28;20417;-73
2021/04/24 02:49:23;;;;;;;16.58;7.78;;;0.80;99.90;;;;;;5031239;28;20451;-73
2021/04/24 02:51:49;;;;;;;15.02;7.57;;;0.70;99.90;;;;;;5032604;28;20057;-73
2021/04/24 02:54:14;;;;;;;16.88;7.93;;;0.80;99.90;;;;;;5032246;28;20021;-73
2021/04/24 02:56:40;;;;;;;15.13;7.78;;;0.80;99.90;;;;;;5032154;28;20026;-73
2021/04/24 02:59:05;;;;;;;14.23;7.10;;;0.70;99.90;;;;;;5032056;28;20029;-73
2021/04/24 03:01:31;;;;;;;14.80;7.55;;;0.70;99.90;;;;;;5032326;28;20104;-73
2021/04/24 03:03:57;;;;;;;14.10;7.60;;;0.60;99.90;;;;;;5031918;28;20073;-73
2021/04/24 03:06:22;;;;;;;18.45;7.32;;;0.60;99.90;;;;;;5031876;28;20029;-73
2021/04/24 03:08:48;;;;;;;14.23;7.75;;;0.60;99.90;;;;;;5030666;28;20033;-74
2021/04/24 03:11:14;;;;;;;21.45;7.57;;;0.60;99.90;;;;;;5032248;28;20469;-72
2021/04/24 03:13:39;;;;;;;16.20;7.43;;;0.50;99.90;;;;;;5031902;28;20040;-73
2021/04/24 03:16:05;;;;;;;15.10;8.40;;;0.50;99.90;;;;;;5030543;28;20064;-72
2021/04/24 03:18:30;;;;;;;17.75;9.68;;;0.50;99.90;;;;;;5030244;28;20076;-71
2021/04/24 03:20:56;;;;;;;13.75;7.30;;;0.40;99.90;;;;;;5030860;28;20488;-73
2021/04/24 03:23:21;;;;;;;17.95;8.50;;;0.40;99.90;;;;;;5031871;28;20442;-73
2021/04/24 03:25:47;;;;;;;14.05;7.65;;;0.40;99.90;;;;;;5031671;28;20025;-73
2021/04/24 03:28:12;;;;;;;13.27;7.00;;;0.40;99.90;;;;;;5030203;28;20140;-73
2021/04/24 03:30:38;;;;;;;14.90;7.35;;;0.40;99.90;;;;;;5058079;22;20069;-73
2021/04/24 03:33:04;;;;;;;12.93;7.28;;;0.40;99.90;;;;;;5030054;28;20029;-72
2021/04/24 03:35:29;;;;;;;15.77;7.20;;;0.30;99.90;;;;;;5031504;28;20040;-72
2021/04/24 03:37:55;;;;;;;14.07;7.63;;;0.30;99.90;;;;;;5031497;28;20026;-72
2021/04/24 03:40:20;;;;;;;16.63;8.75;;;0.20;99.90;;;;;;5031191;28;20049;-73
2021/04/24 03:42:46;;;;;;;17.13;8.38;;;0.20;99.90;;;;;;5031132;28;20033;-73
2021/04/24 03:45:19;;;;;;;16.15;8.18;;;0.20;99.90;;;;;;5031049;28;20033;-72
2021/04/24 03:47:45;;;;;;;;;;;0.20;99.90;;;;;;5030285;28;20026;-72
2021/04/24 03:50:11;;;;;;;19.20;8.68;;;0.20;99.90;;;;;;5029706;28;19905;-72
2021/04/24 03:52:36;;;;;;;16.50;8.70;;;0.10;99.90;;;;;;5031240;28;20025;-72
2021/04/24 03:55:03;;;;;;;16.83;8.00;;;0.10;99.90;;;;;;5031212;28;20052;-72
2021/04/24 03:57:28;;;;;;;14.18;7.80;;;0.10;99.90;;;;;;5031191;28;20083;-72
2021/04/24 03:59:54;;;;;;;15.88;8.40;;;0.10;99.90;;;;;;5029532;28;20053;-72
2021/04/24 04:02:19;;;;;;;18.02;8.98;;;0.00;99.90;;;;;;5030882;28;20060;-72
2021/04/24 04:04:45;;;;;;;12.75;7.35;;;0.00;99.90;;;;;;5030730;28;20061;-72
2021/04/24 04:07:10;;;;;;;15.35;8.35;;;0.00;99.90;;;;;;5031248;28;20026;-72
2021/04/24 04:09:36;;;;;;;21.33;9.85;;;0.00;99.90;;;;;;5030611;28;20048;-72
2021/04/24 04:12:02;;;;;;;18.65;10.48;;;0.10;99.90;;;;;;5031026;28;20021;-72
2021/04/24 04:14:28;;;;;;;23.40;11.98;;;0.20;99.90;;;;;;5030706;28;20033;-72
2021/04/24 04:16:53;;;;;;;18.55;10.35;;;0.20;99.90;;;;;;5029263;28;20117;-72
2021/04/24 04:19:19;;;;;;;24.52;10.82;;;0.20;99.90;;;;;;5029264;28;20036;-72
2021/04/24 04:21:44;;;;;;;22.08;10.85;;;0.30;99.90;;;;;;5030551;28;20021;-72
2021/04/24 04:24:10;;;;;;;17.70;10.23;;;0.20;99.90;;;;;;5029145;28;20018;-72
2021/04/24 04:26:35;;;;;;;25.17;10.27;;;0.30;99.90;;;;;;5029105;28;20672;-72
2021/04/24 04:29:01;;;;;;;22.10;10.88;;;0.30;99.90;;;;;;5030356;28;20028;-72
2021/04/24 04:31:27;;;;;;;18.67;10.52;;;0.30;99.90;;;;;;5028763;28;20063;-72
2021/04/24 04:33:52;;;;;;;18.13;9.73;;;0.40;99.90;;;;;;5028903;28;20038;-72
2021/04/24 04:36:18;;;;;;;20.42;9.55;;;0.40;99.90;;;;;;5028971;28;20022;-72
2021/04/24 04:38:43;;;;;;;19.17;10.75;;;0.40;99.90;;;;;;5030659;28;20061;-72
2021/04/24 04:41:09;;;;;;;18.75;9.90;;;0.50;99.90;;;;;;5030459;28;20034;-72
2021/04/24 04:43:35;;;;;;;19.50;9.50;;;0.50;99.90;;;;;;5029964;28;20057;-73
2021/04/24 04:46:00;;;;;;;21.70;10.73;;;0.60;99.90;;;;;;5030037;28;20060;-73
2021/04/24 04:48:26;;;;;;;21.25;10.32;;;0.70;99.90;;;;;;5028783;28;20026;-72
2021/04/24 04:50:51;;;;;;;17.20;9.27;;;0.70;99.90;;;;;;5028737;28;20495;-72
2021/04/24 04:53:17;;;;;;;19.08;10.85;;;0.80;99.90;;;;;;5030348;28;20395;-72
2021/04/24 04:55:43;;;;;;;20.17;10.60;;;0.90;99.90;;;;;;5029940;28;20029;-72
2021/04/24 04:58:08;;;;;;;18.88;10.15;;;1.00;99.90;;;;;;5030204;28;20498;-72
2021/04/24 05:00:34;;;;;;;19.80;10.25;;;1.20;99.90;;;;;;5028651;28;20029;-72
2021/04/24 05:03:00;;;;;;;22.48;11.13;;;1.30;99.90;;;;;;5028635;28;20032;-72
2021/04/24 05:05:25;;;;;;;22.40;11.77;;;1.40;99.90;;;;;;5029698;28;20025;-72
2021/04/24 05:07:51;;;;;;;18.70;10.00;;;1.50;99.90;;;;;;5029987;28;20070;-72
2021/04/24 05:10:18;;;;;;;20.77;10.77;;;1.60;99.90;;;;;;5029203;28;20029;-72
2021/04/24 05:12:44;;;;;;;17.10;10.45;;;1.70;99.90;;;;;;5029036;28;20077;-72
2021/04/24 05:15:11;;;;;;;22.05;10.98;;;1.90;99.90;;;;;;5030430;28;20482;-72
2021/04/24 05:17:36;;;;;;;21.63;11.15;;;2.00;99.90;;;;;;5029835;28;20033;-72
2021/04/24 05:20:04;;;;;;;23.67;10.93;;;2.20;99.90;;;;;;5028173;28;20041;-72
2021/04/24 05:22:30;;;;;;;19.83;10.35;;;2.30;99.90;;;;;;5029371;28;20394;-72
2021/04/24 05:24:57;;;;;;;17.77;9.77;;;2.40;99.90;;;;;;5029367;28;20025;-72
2021/04/24 05:27:23;;;;;;;19.85;9.60;;;2.50;99.90;;;;;;5029488;28;20017;-72
2021/04/24 05:29:49;;;;;;;20.30;9.43;;;2.70;99.90;;;;;;5027902;28;20039;-72
2021/04/24 05:32:14;;;;;;;13.88;8.15;;;2.80;99.90;;;;;;5029349;28;20076;-73
2021/04/24 05:34:40;;;;;;;15.30;8.45;;;3.00;99.90;;;;;;5029347;28;20022;-72
2021/04/24 05:37:06;;;;;;;13.23;7.78;;;3.10;99.90;;;;;;5029311;28;20030;-72
2021/04/24 05:39:31;;;;;;;14.88;8.02;;;3.20;99.90;;;;;;5029313;28;20053;-72
2021/04/24 05:41:58;;;;;;;13.93;8.95;;;3.30;99.90;;;;;;5029672;28;20049;-72
2021/04/24 05:44:23;;;;;;;16.25;8.63;;;3.40;99.90;;;;;;5035451;28;20108;-72
2021/04/24 05:46:49;;;;;;;18.70;9.27;;;3.50;99.90;;;;;;5035899;28;20037;-72
2021/04/24 05:49:14;;;;;;;16.58;8.48;;;3.60;99.90;;;;;;5036081;28;20028;-73
2021/04/24 05:51:40;;;;;;;18.25;8.80;;;3.70;99.90;;;;;;5034546;28;20028;-73
2021/04/24 05:54:05;;;;;;;17.55;8.98;;;3.80;99.90;;;;;;5034571;28;20028;-73
2021/04/24 05:56:31;;;;;;;15.82;8.80;;;4.00;99.90;;;;;;5034628;28;20034;-73
2021/04/24 05:58:56;;;;;;;16.15;8.82;;;4.20;99.90;;;;;;5036062;28;20053;-73
2021/04/24 06:01:22;;;;;;;18.85;9.43;;;4.40;99.90;;;;;;5036078;28;20061;-73
2021/04/24 06:03:47;;;;;;;15.02;9.48;;;4.60;99.90;;;;;;5035721;28;20026;-73
2021/04/24 06:06:13;;;;;;;14.75;8.75;;;4.80;99.90;;;;;;5034479;28;20051;-73
2021/04/24 06:08:38;;;;;;;16.88;8.80;;;5.00;99.90;;;;;;5034473;28;20108;-73
2021/04/24 06:11:04;;;;;;;16.25;8.52;;;5.20;99.90;;;;;;5036055;28;20092;-72
2021/04/24 06:13:30;;;;;;;20.85;9.05;;;5.50;99.90;;;;;;5035692;28;20022;-72
2021/04/24 06:15:56;;;;;;;16.98;9.32;;;5.70;99.90;;;;;;5036034;28;20038;-73
2021/04/24 06:18:23;;;;;;;20.00;8.80;;;5.90;99.90;;;;;;5035711;28;20030;-72
2021/04/24 06:20:48;;;;;;;13.70;8.90;;;6.10;99.90;;;;;;5034268;28;20067;-72
2021/04/24 06:23:14;;;;;;;15.63;8.50;;;6.20;99.90;;;;;;5035527;28;20486;-73
2021/04/24 06:25:41;;;;;;;14.43;7.68;;;6.40;99.90;;;;;;5034491;28;20116;-72
2021/04/24 06:28:08;;;;;;;13.93;8.20;;;6.50;99.90;;;;;;5034433;28;20040;-72
2021/04/24 06:30:33;;;;;;;14.55;8.35;;;6.60;99.90;;;;;;5034133;28;20039;-72
2021/04/24 06:32:59;;;;;;;12.65;7.90;;;6.70;99.90;;;;;;5035842;28;20034;-71
2021/04/24 06:35:25;;;;;;;16.45;9.13;;;6.90;99.90;;;;;;5034262;28;20030;-70
2021/04/24 06:37:52;;;;;;;10.98;6.60;;;7.00;99.90;;;;;;5035563;28;20029;-71
2021/04/24 06:40:19;;;;;;;13.10;6.53;;;7.20;99.90;;;;;;5035315;28;20021;-71
2021/04/24 06:42:46;;;;;;;12.30;7.03;;;7.40;99.90;;;;;;5035779;28;20033;-71
2021/04/24 06:45:13;;;;;;;19.88;7.90;;;7.60;99.90;;;;;;5035177;28;20113;-71
2021/04/24 06:47:39;;;;;;;11.05;6.43;;;7.80;99.90;;;;;;5035506;28;20376;-72
2021/04/24 06:50:06;;;;;;;11.90;6.63;;;8.00;99.90;;;;;;5035191;28;20024;-71
2021/04/24 06:52:32;;;;;;;18.17;6.88;;;8.20;99.90;;;;;;5034093;28;20104;-73
2021/04/24 06:54:57;;;;;;;12.65;6.32;;;8.40;99.90;;;;;;5032057;28;20132;-71
2021/04/24 06:57:23;;;;;;;10.73;6.40;;;8.60;99.90;;;;;;5031059;28;20022;-73
2021/04/24 06:59:48;;;;;;;13.13;6.75;;;8.80;99.90;;;;;;5032122;28;20064;-71
2021/04/24 07:02:16;;;;;;;10.73;6.50;;;8.90;99.90;;;;;;5032201;28;20104;-72
2021/04/24 07:04:41;;;;;;;11.98;6.13;;;9.10;99.90;;;;;;5032119;28;20021;-72
2021/04/24 07:07:09;;;;;;;13.73;6.80;;;9.20;99.90;;;;;;5032218;28;20075;-71
2021/04/24 07:09:34;;;;;;;13.57;6.38;;;9.30;99.90;;;;;;5031804;28;20402;-71
2021/04/24 07:12:00;;;;;;;14.55;7.55;;;9.40;99.90;;;;;;5030582;28;20022;-71
2021/04/24 07:14:25;;;;;;;11.35;6.60;;;9.60;99.90;;;;;;5030567;28;20442;-71
2021/04/24 07:16:51;;;;;;;11.93;5.95;;;9.70;99.90;;;;;;5030528;28;20029;-72
2021/04/24 07:19:17;;;;;;;9.75;5.85;;;9.90;99.90;;;;;;5030264;28;20026;-71
2021/04/24 07:21:43;;;;;;;13.38;7.53;;;10.00;99.90;;;;;;5030376;28;20036;-71
2021/04/24 07:24:09;;;;;;;13.23;5.60;;;10.10;99.90;;;;;;5030339;28;20026;-71
2021/04/24 07:26:35;;;;;;;8.88;6.13;;;10.20;99.90;;;;;;5030310;28;20479;-71
2021/04/24 07:29:01;;;;;;;10.98;6.25;;;10.20;99.90;;;;;;5031284;28;20029;-71
2021/04/24 07:31:26;;;;;;;10.57;6.05;;;10.40;99.90;;;;;;5031687;28;20537;-71
2021/04/24 07:33:52;;;;;;;11.23;6.53;;;10.40;99.90;;;;;;5030131;28;20076;-72
2021/04/24 07:36:18;;;;;;;10.25;6.38;;;10.40;99.90;;;;;;5030122;28;20078;-71
2021/04/24 07:38:45;;;;;;;11.95;6.60;;;10.50;99.90;;;;;;5030037;28;20029;-72
2021/04/24 07:41:10;;;;;;;11.80;6.72;;;10.70;99.90;;;;;;5031459;28;20105;-71
2021/04/24 07:43:36;;;;;;;12.00;6.68;;;10.90;99.80;;;;;;5031825;28;20057;-72
2021/04/24 07:46:03;;;;;;;13.23;6.68;;;11.20;97.80;;;;;;5031298;28;20398;-71
2021/04/24 07:48:28;;;;;;;12.70;6.55;;;11.40;95.80;;;;;;5031072;28;20121;-73
2021/04/24 07:50:54;;;;;;;14.80;6.28;;;11.60;93.30;;;;;;5029768;28;20024;-72
2021/04/24 07:53:21;;;;;;;12.68;6.47;;;11.70;94.60;;;;;;5031159;28;20489;-72
2021/04/24 07:55:47;;;;;;;12.25;6.90;;;12.10;93.80;;;;;;5029884;28;20029;-72
2021/04/24 07:58:13;;;;;;;10.30;6.50;;;12.40;90.70;;;;;;5029717;28;20025;-72
2021/04/24 08:00:39;;;;;;;11.88;6.75;;;12.60;90.00;;;;;;5030917;28;20027;-72
2021/04/24 08:03:05;;;;;;;10.60;6.50;;;12.90;90.20;;;;;;5031002;28;20052;-72
2021/04/24 08:05:31;;;;;;;11.57;6.82;;;13.30;87.70;;;;;;5030418;28;20033;-71
2021/04/24 08:07:57;;;;;;;11.02;6.25;;;13.50;83.00;;;;;;5031072;28;20029;-72
2021/04/24 08:10:23;;;;;;;13.48;6.60;;;13.60;81.10;;;;;;5031092;28;20394;-72
2021/04/24 08:12:49;;;;;;;14.68;6.53;;;13.90;80.30;;;;;;5031655;28;20033;-72
2021/04/24 08:15:17;;;;;;;13.90;6.75;;;14.20;76.90;;;;;;5031900;28;20381;-72
2021/04/24 08:17:42;;;;;;;14.88;7.28;;;14.30;72.50;;;;;;5030909;28;20025;-72
2021/04/24 08:20:09;;;;;;;11.43;6.13;;;14.50;69.80;;;;;;5030738;28;20051;-72
2021/04/24 08:22:35;;;;;;;9.00;5.95;;;14.70;69.20;;;;;;5032175;28;20029;-71
2021/04/24 08:25:02;;;;;;;13.23;6.57;;;15.00;71.40;;;;;;5030063;28;20451;-71
2021/04/24 08:27:28;;;;;;;10.10;6.32;;;15.20;66.20;;;;;;5030666;28;20032;-71
2021/04/24 08:29:53;;;;;;;10.95;6.38;;;15.50;62.50;;;;;;5030906;28;20025;-70
2021/04/24 08:32:19;;;;;;;10.30;6.22;;;15.70;61.40;;;;;;5030753;28;20026;-71
2021/04/24 08:34:44;;;;;;;9.85;6.10;;;15.90;61.90;;;;;;5029344;28;20033;-71
2021/04/24 08:37:10;;;;;;;10.35;6.45;;;16.00;60.60;;;;;;5030431;28;20117;-71
2021/04/24 08:39:37;;;;;;;12.60;7.07;;;16.40;59.40;;;;;;5029829;28;20021;-71
2021/04/24 08:42:04;;;;;;;15.55;6.63;;;16.70;59.20;;;;;;5029457;28;20079;-71
2021/04/24 08:44:29;;;;;;;11.20;6.13;;;16.90;56.70;;;;;;5029210;28;20022;-71
2021/04/24 08:46:57;;;;;;;11.57;6.43;;;17.30;55.50;;;;;;5030499;28;20075;-71
2021/04/24 08:49:23;;;;;;;9.93;6.65;;;17.60;57.00;;;;;;5030441;28;20086;-71
2021/04/24 08:51:51;;;;;;;11.15;6.63;;;18.00;55.00;;;;;;5030709;28;20029;-71
2021/04/24 08:54:17;;;;;;;11.70;6.72;;;18.40;53.40;;;;;;5029219;28;20410;-71
2021/04/24 08:56:43;;;;;;;15.77;7.07;;;18.90;51.00;;;;;;5029140;28;20022;-70
2021/04/24 08:59:09;;;;;;;9.35;6.32;;;19.20;50.90;;;;;;5028977;28;20026;-71
2021/04/24 09:01:35;;;;;;;12.90;6.70;;;19.60;49.30;;;;;;5029988;28;20493;-71
2021/04/24 09:04:00;;;;;;;12.35;6.72;;;19.70;48.80;;;;;;5028887;28;20126;-71
2021/04/24 09:06:28;;;;;;;11.40;7.25;;;19.90;48.60;;;;;;5030338;28;20494;-71
2021/04/24 09:09:03;;;;;;;13.00;6.68;;;19.80;46.90;;;;;;5029705;28;20021;-71
2021/04/24 09:11:38;;;;;;;13.15;7.00;;;19.70;48.00;;;;;;5029107;28;20025;-71
2021/04/24 09:14:06;;;;;;;10.57;7.05;;;20.00;47.60;;;;;;5030067;28;20546;-71
2021/04/24 09:16:33;;;;;;;11.80;7.60;;;20.00;47.00;;;;;;5029606;28;20397;-71
2021/04/24 09:18:59;;;;;;;10.18;7.30;;;20.10;46.90;;;;;;5028856;28;20022;-71
2021/04/24 09:21:27;;;;;;;12.93;6.72;;;19.90;46.70;;;;;;5029168;28;20033;-71
2021/04/24 09:23:53;;;;;;;13.15;7.32;;;19.90;46.70;;;;;;5029795;28;20032;-71
2021/04/24 09:26:27;;;;;;;10.50;7.05;;;20.00;46.20;;;;;;5029531;28;20021;-71
2021/04/24 09:31:28;;;;;;;9.15;6.43;;;21.00;44.60;;;;;;5051919;22;20506;-75
2021/04/24 09:33:57;;;;;;;12.38;6.55;;;22.00;43.80;;;;;;5028040;28;20033;-75
2021/04/24 09:36:31;;;;;;;10.75;6.88;;;22.90;42.30;;;;;;5029703;28;20056;-75
2021/04/24 09:39:01;;;;;;;9.02;6.75;;;23.80;39.30;;;;;;5029670;28;20029;-75
2021/04/24 09:41:29;;;;;;;11.13;6.72;;;24.30;39.10;;;;;;5029266;28;20109;-75
2021/04/24 09:44:04;;;;;;;8.93;6.90;;;24.40;39.50;;;;;;5029263;28;20078;-74
2021/04/24 09:46:48;;;;;;;9.57;6.38;;;24.90;37.00;;;;;;5027982;28;20037;-73
2021/04/24 09:49:29;;;;;;;9.00;5.32;;;25.90;34.30;;;;;;5027786;28;20027;-73
2021/04/24 09:51:56;;;;;;;9.30;6.13;;;26.90;34.40;;;;;;5029448;28;20067;-73
2021/04/24 09:54:37;;;;;;;10.18;6.50;;;28.50;32.50;;;;;;5029066;28;20332;-73
2021/04/24 09:57:06;;;;;;;8.98;5.65;;;31.60;28.00;;;;;;5027882;28;20031;-74
2021/04/24 09:59:32;;;;;;;6.65;4.90;;;35.30;24.80;;;;;;5029188;28;20026;-74
2021/04/24 10:02:06;;;;;;;8.20;5.00;;;37.40;22.20;;;;;;5027825;28;20021;-73
2021/04/24 10:04:32;;;;;;;7.45;5.47;;;40.30;20.40;;;;;;5027701;28;20084;-74
2021/04/24 10:06:58;;;;;;;7.82;5.53;;;42.40;18.10;;;;;;5027902;28;20429;-74
2021/04/24 10:09:31;;;;;;;5.95;4.38;;;43.70;16.90;;;;;;5027821;28;20036;-74
2021/04/24 10:11:59;;;;;;;7.63;5.57;;;44.50;17.10;;;;;;5027813;28;20486;-74
2021/04/24 10:14:34;;;;;;;7.45;5.22;;;44.60;16.10;;;;;;5028906;28;20029;-75
2021/04/24 10:17:04;;;;;;;7.30;5.78;;;44.10;15.90;;;;;;5029556;28;20039;-74
2021/04/24 10:19:31;;;;;;;7.15;5.30;;;43.80;16.60;;;;;;5028878;28;20033;-74
2021/04/24 10:21:58;;;;;;;8.55;5.68;;;42.70;16.40;;;;;;5028921;28;20029;-73
2021/04/24 10:24:26;;;;;;;6.32;4.70;;;43.40;16.00;;;;;;5027667;28;20022;-74
2021/04/24 10:26:52;;;;;;;6.13;5.47;;;44.40;15.70;;;;;;5029176;28;20017;-74
2021/04/24 10:29:19;;;;;;;5.30;4.20;;;44.80;14.80;;;;;;5029988;28;20029;-74
2021/04/24 10:31:46;;;;;;;7.20;4.60;;;44.30;15.60;;;;;;5032746;28;20056;-74
2021/04/24 10:34:13;;;;;;;7.07;6.38;;;45.30;15.50;;;;;;5031340;28;20025;-74
2021/04/24 10:36:39;;;;;;;5.85;4.47;;;44.60;14.80;;;;;;5032522;28;20037;-74
2021/04/24 10:39:17;;;;;;;7.80;5.80;;;44.70;15.00;;;;;;5032599;28;20064;-74
2021/04/24 10:41:48;;;;;;;8.98;5.57;;;44.80;14.70;;;;;;5031207;28;20030;-74
2021/04/24 10:44:15;;;;;;;7.55;5.03;;;44.10;15.00;;;;;;5032547;28;20096;-73
2021/04/24 10:46:56;;;;;;;5.72;4.70;;;42.50;15.10;;;;;;5031139;28;20100;-74
2021/04/24 10:49:28;;;;;;;4.95;3.92;;;42.60;16.00;;;;;;5032209;28;20441;-74
2021/04/24 10:52:24;;;;;;;5.40;4.90;;;44.50;15.50;;;;;;5032267;28;20025;-74
2021/04/24 10:55:13;;;;;;;5.38;3.60;;;45.70;14.50;;;;;;5030805;28;20112;-74
2021/04/24 10:57:38;;;;;;;5.80;3.13;;;46.30;13.50;;;;;;5024511;28;20042;-74
2021/04/24 11:00:09;;;;;;;4.07;2.63;;;46.20;13.70;;;;;;5032061;28;20022;-73
2021/04/24 11:02:38;;;;;;;8.00;3.83;;;46.90;13.20;;;;;;5032190;28;20022;-74
2021/04/24 11:05:43;;;;;;;6.80;4.15;;;47.30;13.30;;;;;;5032062;28;20022;-74
2021/04/24 11:08:12;;;;;;;7.05;4.63;;;47.10;12.90;;;;;;5024985;28;20072;-74
2021/04/24 11:10:45;;;;;;;7.35;4.25;;;45.00;12.80;;;;;;5031850;28;20064;-73
2021/04/24 11:13:12;;;;;;;7.32;3.45;;;44.10;13.20;;;;;;5031945;28;20026;-73
2021/04/24 11:15:39;;;;;;;6.13;4.70;;;44.90;14.00;;;;;;5030535;28;20095;-74
2021/04/24 11:18:10;;;;;;;6.68;4.60;;;45.20;13.60;;;;;;5031823;28;20501;-73
2021/04/24 11:21:05;;;;;;;5.70;4.72;;;45.70;13.50;;;;;;5032052;28;20179;-73
2021/04/24 11:23:39;;;;;;;5.97;5.05;;;44.70;13.80;;;;;;5031637;28;20041;-73
2021/04/24 11:26:26;;;;;;;7.03;5.03;;;42.90;14.70;;;;;;5031911;28;20022;-74
2021/04/24 11:29:00;;;;;;;7.82;5.32;;;43.50;14.50;;;;;;5021038;28;20049;-74
2021/04/24 11:31:45;;;;;;;5.18;4.25;;;43.70;14.30;;;;;;5031253;28;20042;-74
2021/04/24 11:34:35;;;;;;;5.22;4.03;;;43.70;14.40;;;;;;5031451;28;20031;-74
2021/04/24 11:37:23;;;;;;;6.15;4.88;;;45.10;14.70;;;;;;5031466;28;20017;-74
2021/04/24 11:40:28;;;;;;;4.20;3.50;;;45.00;13.50;;;;;;5031434;28;20562;-74
2021/04/24 11:42:58;;;;;;;6.78;5.20;;;45.80;13.90;;;;;;5030159;28;20048;-74
2021/04/24 11:45:45;;;;;;;7.07;5.00;;;45.40;13.60;;;;;;5030048;28;20057;-74
2021/04/24 11:48:11;;;;;;;4.38;2.80;;;44.90;13.90;;;;;;5031232;28;20059;-74
2021/04/24 11:50:39;;;;;;;4.50;4.07;;;45.40;13.90;;;;;;5029848;28;20120;-74
2021/04/24 11:53:04;;;;;;;4.40;3.72;;;46.30;13.50;;;;;;5031132;28;20026;-73
2021/04/24 11:55:30;;;;;;;6.82;6.00;;;46.70;13.70;;;;;;5029867;28;20514;-74
2021/04/24 11:58:16;;;;;;;5.40;4.15;;;45.90;13.60;;;;;;5029826;28;20022;-74
2021/04/24 12:00:42;;;;;;;6.43;5.00;;;45.50;13.50;;;;;;5031178;28;20083;-74
2021/04/24 12:03:10;;;;;;;6.22;5.25;;;44.50;14.70;;;;;;5030852;28;20522;-73
2021/04/24 12:05:43;;;;;;;5.70;4.93;;;44.90;14.90;;;;;;5029583;28;20025;-74
2021/04/24 12:08:18;;;;;;;9.57;5.82;;;45.10;13.80;;;;;;5030834;28;20024;-74
2021/04/24 12:10:43;;;;;;;6.20;4.78;;;43.00;14.10;;;;;;5030957;28;20029;-74
2021/04/24 12:13:10;;;;;;;9.02;6.13;;;42.80;14.90;;;;;;5029492;28;20026;-73
2021/04/24 12:15:38;;;;;;;8.30;6.97;;;43.30;15.20;;;;;;5029413;28;20426;-74
2021/04/24 12:18:05;;;;;;;5.47;4.63;;;42.50;15.10;;;;;;5030750;28;20026;-74
2021/04/24 12:20:38;;;;;;;6.28;4.75;;;41.90;15.40;;;;;;5030881;28;20049;-74
2021/04/24 12:23:09;;;;;;;7.72;6.50;;;42.40;16.30;;;;;;5030698;28;20093;-73
2021/04/24 12:25:37;;;;;;;4.93;4.10;;;43.30;15.00;;;;;;5037895;28;20036;-74
2021/04/24 12:28:04;;;;;;;7.15;5.35;;;43.50;14.70;;;;;;5038064;28;20063;-74
2021/04/24 12:30:32;;;;;;;6.82;4.75;;;44.20;14.50;;;;;;5038672;28;20063;-74
2021/04/24 12:33:08;;;;;;;7.50;4.30;;;44.70;15.10;;;;;;5035229;28;20086;-74
2021/04/24 12:35:41;;;;;;;7.88;5.38;;;45.70;14.40;;;;;;5035402;28;20022;-74
2021/04/24 12:38:22;;;;;;;7.70;5.50;;;45.70;14.80;;;;;;5031139;28;20460;-74
2021/04/24 12:40:53;;;;;;;6.32;5.22;;;45.70;14.00;;;;;;5030880;28;20513;-74
2021/04/24 12:43:36;;;;;;;7.45;5.65;;;45.00;14.80;;;;;;5029307;28;20057;-74
2021/04/24 12:46:05;;;;;;;7.85;6.28;;;44.60;16.30;;;;;;5029337;28;20057;-74
2021/04/24 12:48:39;;;;;;;5.93;4.88;;;44.10;15.00;;;;;;5030174;28;20435;-73
2021/04/24 12:51:11;;;;;;;7.03;6.32;;;43.80;15.60;;;;;;5030066;28;20025;-74
2021/04/24 12:53:38;;;;;;;6.00;4.13;;;42.30;15.30;;;;;;5028728;28;20383;-73